Time;durP1;ratioP1;P1;durP2;ratioP2;P2;SDS_P1;SDS_P2;PMS_P1;PMS_P2;Temp;Humidity;BMP_temperature;BMP_pressure;BME280_temperature;BME280_humidity;BME280_pressure;Samples;Min_cycle;Max_cycle;Signal;HPM_P1;HPM_P2
2022/04/14 00:01:51;;;;;;;7.65;5.03;;;;;;;13.16;62.30;101530.00;4969753;28;20066;-83
2022/04/14 00:04:17;;;;;;;7.20;4.15;;;;;;;13.08;61.40;101512.94;4987399;28;20058;-84
2022/04/14 00:06:44;;;;;;;8.48;4.43;;;;;;;13.36;61.33;101562.16;4970492;28;20124;-84
2022/04/14 00:09:11;;;;;;;4.60;4.20;;;;;;;13.26;61.60;101551.38;4969936;28;20277;-85
2022/04/14 00:11:38;;;;;;;5.82;4.05;;;;;;;12.78;61.60;101482.59;4969603;28;20050;-84
2022/04/14 00:14:06;;;;;;;6.00;4.10;;;;;;;13.21;61.46;101556.28;4969637;28;20141;-85
2022/04/14 00:16:33;;;;;;;8.95;4.80;;;;;;;12.95;61.62;101522.00;4969813;28;20150;-85
2022/04/14 00:19:00;;;;;;;4.07;3.60;;;;;;;12.85;62.44;101521.09;4969763;28;20047;-85
2022/04/14 00:21:26;;;;;;;5.43;4.05;;;;;;;12.89;62.14;101527.84;4986781;28;20054;-85
2022/04/14 00:23:53;;;;;;;5.60;4.50;;;;;;;13.05;61.82;101554.88;4980632;28;20057;-86
2022/04/14 00:26:19;;;;;;;6.63;4.53;;;;;;;13.36;61.41;101568.31;4988697;28;20137;-85
2022/04/14 00:28:46;;;;;;;7.28;4.15;;;;;;;13.36;61.07;101573.66;4988668;28;20148;-85
2022/04/14 00:31:13;;;;;;;6.43;4.70;;;;;;;12.65;61.54;101450.00;4989311;28;20049;-85
2022/04/14 00:33:39;;;;;;;7.05;5.25;;;;;;;12.95;61.53;101510.50;5006532;28;20054;-85
2022/04/14 00:36:06;;;;;;;6.43;4.88;;;;;;;13.36;61.58;101563.00;4988924;28;20065;-85
2022/04/14 00:38:33;;;;;;;8.40;5.93;;;;;;;13.39;61.95;101567.22;4988839;28;20476;-85
2022/04/14 00:40:59;;;;;;;5.45;4.90;;;;;;;13.33;62.01;101565.94;4989072;28;20056;-85
2022/04/14 00:43:34;;;;;;;9.68;5.10;;;;;;;13.18;62.33;101560.03;4989164;28;20100;-85
2022/04/14 00:46:02;;;;;;;5.75;4.88;;;;;;;11.59;62.41;101330.97;4989089;28;20547;-84
2022/04/14 00:48:31;;;;;;;7.85;4.75;;;;;;;13.02;63.39;101571.16;5008045;28;20573;-83
2022/04/14 00:51:00;;;;;;;9.20;5.05;;;;;;;11.48;63.21;101329.16;4993223;28;20099;-83
2022/04/14 00:53:28;;;;;;;8.40;5.20;;;;;;;12.80;63.18;101563.25;4993543;28;20112;-84
2022/04/14 00:55:55;;;;;;;5.78;5.28;;;;;;;11.53;63.78;101364.22;4993394;28;20112;-84
2022/04/14 00:58:22;;;;;;;6.60;5.18;;;;;;;12.27;63.94;101472.66;4993561;28;20127;-84
2022/04/14 01:00:49;;;;;;;6.03;5.35;;;;;;;12.88;63.73;101581.28;4994357;28;20141;-83
2022/04/14 01:03:17;;;;;;;6.10;5.45;;;;;;;12.82;63.89;101580.81;4996430;28;20058;-84
2022/04/14 01:05:45;;;;;;;6.13;4.70;;;;;;;11.06;63.60;101294.44;5019111;28;20046;-85
2022/04/14 01:08:16;;;;;;;7.30;5.38;;;;;;;11.85;63.59;101451.22;5008867;28;20046;-85
2022/04/14 01:10:48;;;;;;;6.43;4.85;;;;;;;11.67;63.50;101422.44;5011090;28;20077;-86
2022/04/14 01:13:16;;;;;;;8.05;5.10;;;;;;;12.55;63.66;101561.78;5000678;28;20046;-83
2022/04/14 01:15:44;;;;;;;7.72;4.78;;;;;;;12.69;63.62;101582.78;4992871;28;20092;-85
2022/04/14 01:18:12;;;;;;;5.95;4.88;;;;;;;12.37;62.56;101543.66;4992429;28;20050;-83
2022/04/14 01:20:41;;;;;;;4.60;4.20;;;;;;;12.45;63.16;101564.34;5009491;28;20053;-83
2022/04/14 01:23:10;;;;;;;5.07;4.65;;;;;;;11.73;62.76;101437.91;5009788;28;20094;-85
2022/04/14 01:25:38;;;;;;;5.68;4.00;;;;;;;12.66;62.48;101579.53;4991918;28;20584;-85
2022/04/14 01:28:06;;;;;;;6.63;4.18;;;;;;;12.58;62.87;101572.19;4991875;28;20142;-85
2022/04/14 01:30:34;;;;;;;4.97;4.38;;;;;;;12.14;62.35;101494.97;5009564;28;20133;-85
2022/04/14 01:33:01;;;;;;;5.70;3.88;;;;;;;12.08;62.24;101495.44;4991701;28;20373;-85
2022/04/14 01:35:28;;;;;;;6.57;4.07;;;;;;;12.57;61.76;101570.47;5009368;28;20061;-85
2022/04/14 01:37:55;;;;;;;5.70;3.67;;;;;;;12.56;62.01;101574.97;4991996;28;20309;-85
2022/04/14 01:40:21;;;;;;;5.40;4.15;;;;;;;10.96;62.09;101309.44;5009024;28;20129;-85
2022/04/14 01:42:48;;;;;;;5.35;4.18;;;;;;;12.38;61.98;101552.50;4992040;28;20054;-85
2022/04/14 01:45:14;;;;;;;4.63;3.97;;;;;;;12.29;61.96;101566.56;5009371;28;20506;-85
2022/04/14 01:47:42;;;;;;;4.75;3.92;;;;;;;11.71;62.32;101461.13;5008047;28;20073;-84
2022/04/14 01:50:14;;;;;;;4.20;3.33;;;;;;;12.18;62.76;101546.97;4992028;28;20185;-84
2022/04/14 01:52:42;;;;;;;;;;;;;;;12.38;62.06;101581.81;5009688;28;20052;-85
2022/04/14 01:55:09;;;;;;;6.20;3.65;;;;;;;12.35;62.00;101574.03;5009211;28;19921;-85
2022/04/14 01:57:35;;;;;;;4.43;4.03;;;;;;;12.35;62.03;101571.38;5010065;28;20049;-84
2022/04/14 02:00:06;;;;;;;5.15;3.92;;;;;;;11.78;62.51;101485.44;4991612;28;20046;-85
2022/04/14 02:02:33;;;;;;;4.40;3.92;;;;;;;12.04;62.46;101527.75;4990991;28;20124;-84
2022/04/14 02:05:00;;;;;;;5.10;4.47;;;;;;;11.98;62.47;101518.44;5008205;28;20054;-84
2022/04/14 02:07:27;;;;;;;3.95;3.65;;;;;;;12.09;62.56;101541.56;5006422;28;20061;-85
2022/04/14 02:09:53;;;;;;;4.88;4.47;;;;;;;12.14;62.28;101558.00;5008434;28;20076;-86
2022/04/14 02:12:20;;;;;;;6.85;4.55;;;;;;;12.36;63.12;101573.09;5007261;28;20130;-84
2022/04/14 02:14:46;;;;;;;5.70;4.45;;;;;;;11.19;62.89;101389.97;4990284;28;20129;-84
2022/04/14 02:17:13;;;;;;;5.40;4.65;;;;;;;12.33;63.28;101575.97;4990704;28;20429;-85
2022/04/14 02:19:39;;;;;;;5.00;4.50;;;;;;;12.24;63.11;101563.44;4989431;28;20136;-85
2022/04/14 02:22:06;;;;;;;4.88;4.47;;;;;;;11.87;63.02;101503.34;5007646;28;20409;-84
2022/04/14 02:24:33;;;;;;;7.20;5.65;;;;;;;12.27;62.80;101579.16;4992198;28;20060;-84
2022/04/14 02:26:59;;;;;;;10.23;5.50;;;;;;;12.24;63.50;101574.91;4970961;28;20138;-84
2022/04/14 02:29:26;;;;;;;7.15;5.25;;;;;;;12.11;63.36;101569.75;4971141;28;20144;-85
2022/04/14 02:31:56;;;;;;;7.57;5.05;;;;;;;11.51;63.75;101496.44;4971789;28;20050;-84
2022/04/14 02:34:26;;;;;;;6.13;4.35;;;;;;;12.03;63.93;101573.97;4987078;28;20137;-84
2022/04/14 02:36:54;;;;;;;5.47;4.70;;;;;;;12.01;63.59;101574.09;4970179;28;20048;-84
2022/04/14 02:39:20;;;;;;;6.45;4.78;;;;;;;11.99;64.06;101576.03;4970919;28;20050;-84
2022/04/14 02:41:47;;;;;;;8.75;4.97;;;;;;;12.08;63.61;101588.59;4987363;28;20046;-84
2022/04/14 02:44:14;;;;;;;4.97;4.57;;;;;;;12.06;63.85;101579.88;4988003;28;20138;-84
2022/04/14 02:46:40;;;;;;;9.20;4.90;;;;;;;12.04;63.99;101584.50;4970217;28;20505;-84
2022/04/14 02:49:07;;;;;;;6.88;4.47;;;;;;;11.95;63.83;101558.63;4969628;28;20142;-84
2022/04/14 02:51:34;;;;;;;6.88;4.88;;;;;;;11.40;63.41;101461.88;4969308;28;20496;-84
2022/04/14 02:54:00;;;;;;;6.90;4.50;;;;;;;11.61;63.50;101513.38;4987652;28;20046;-84
2022/04/14 02:56:27;;;;;;;10.50;5.35;;;;;;;11.80;63.46;101559.81;4987429;28;20497;-84
2022/04/14 02:58:53;;;;;;;7.28;4.28;;;;;;;11.62;63.70;101536.31;4987936;28;20078;-84
2022/04/14 03:01:20;;;;;;;6.43;4.97;;;;;;;11.93;63.37;101585.34;4987720;28;20049;-83
2022/04/14 03:03:46;;;;;;;8.18;4.50;;;;;;;11.79;62.68;101564.25;4986940;28;20421;-84
2022/04/14 03:06:13;;;;;;;5.85;4.28;;;;;;;11.66;63.45;101548.44;4968740;28;20053;-84
2022/04/14 03:08:39;;;;;;;5.53;4.13;;;;;;;11.76;63.42;101570.66;4969894;28;20053;-84
2022/04/14 03:11:06;;;;;;;7.03;4.68;;;;;;;11.30;63.13;101493.66;4969887;28;20046;-84
2022/04/14 03:13:32;;;;;;;6.65;4.60;;;;;;;11.74;63.24;101582.41;4987052;28;20050;-83
2022/04/14 03:15:59;;;;;;;6.03;4.60;;;;;;;11.55;63.64;101543.09;4987353;28;20144;-83
2022/04/14 03:18:26;;;;;;;4.35;4.00;;;;;;;11.23;62.53;101487.13;4985774;28;20039;-83
2022/04/14 03:20:52;;;;;;;5.82;4.32;;;;;;;11.68;62.53;101564.28;4987275;28;20674;-84
2022/04/14 03:23:19;;;;;;;9.50;4.45;;;;;;;11.84;62.78;101582.53;4976358;28;20049;-83
2022/04/14 03:25:45;;;;;;;5.78;4.15;;;;;;;11.97;62.10;101585.97;5007176;28;20392;-83
2022/04/14 03:28:12;;;;;;;4.88;3.92;;;;;;;11.92;61.99;101583.66;5007019;28;20056;-83
2022/04/14 03:30:39;;;;;;;5.75;4.00;;;;;;;11.62;62.81;101541.66;4989595;28;20050;-83
2022/04/14 03:33:05;;;;;;;5.97;4.13;;;;;;;11.46;62.66;101525.22;5005202;28;20038;-84
2022/04/14 03:35:32;;;;;;;5.40;4.15;;;;;;;11.72;62.42;101569.25;5005529;28;20058;-83
2022/04/14 03:37:58;;;;;;;5.28;4.22;;;;;;;11.73;62.69;101575.41;5003994;28;20400;-84
2022/04/14 03:40:25;;;;;;;4.45;4.05;;;;;;;10.70;62.64;101415.88;5005758;28;20180;-84
2022/04/14 03:42:51;;;;;;;7.30;3.95;;;;;;;11.37;62.59;101531.25;4989258;28;20155;-84
2022/04/14 03:45:18;;;;;;;5.43;4.05;;;;;;;11.63;62.84;101585.06;5006142;28;20042;-84
2022/04/14 03:47:45;;;;;;;8.35;4.43;;;;;;;11.49;62.71;101567.53;5006154;28;20396;-84
2022/04/14 03:50:11;;;;;;;5.55;4.57;;;;;;;11.41;62.25;101545.97;5006596;28;20058;-84
2022/04/14 03:52:38;;;;;;;4.80;3.72;;;;;;;11.61;62.67;101579.03;4988982;28;20056;-83
2022/04/14 03:55:06;;;;;;;5.65;3.83;;;;;;;11.06;62.10;101499.88;4989121;28;20423;-83
2022/04/14 03:57:32;;;;;;;4.80;4.32;;;;;;;11.21;62.33;101508.47;4989360;28;20054;-84
2022/04/14 03:59:59;;;;;;;5.50;3.70;;;;;;;10.98;62.88;101472.22;4989117;28;20048;-83
2022/04/14 04:02:25;;;;;;;4.47;4.07;;;;;;;11.42;62.50;101545.03;5005003;28;20062;-83
2022/04/14 04:04:58;;;;;;;6.00;4.45;;;;;;;11.51;63.24;101554.94;4989414;28;20426;-84
2022/04/14 04:07:24;;;;;;;4.43;4.03;;;;;;;11.54;63.00;101570.66;4989222;28;20459;-84
2022/04/14 04:09:51;;;;;;;4.35;3.90;;;;;;;11.38;63.05;101543.56;5006283;28;20289;-83
2022/04/14 04:12:19;;;;;;;5.78;4.15;;;;;;;11.45;63.00;101566.88;4988978;28;20514;-83
2022/04/14 04:14:46;;;;;;;5.00;4.28;;;;;;;11.48;62.25;101571.13;4989089;28;20050;-84
2022/04/14 04:17:13;;;;;;;4.95;4.00;;;;;;;10.90;62.66;101486.09;5006445;28;20322;-84
2022/04/14 04:19:40;;;;;;;4.55;4.13;;;;;;;11.43;62.22;101573.28;5006036;28;20072;-84
2022/04/14 04:22:06;;;;;;;8.32;4.18;;;;;;;11.15;62.50;101538.22;4988777;28;20197;-84
2022/04/14 04:24:33;;;;;;;5.38;4.50;;;;;;;11.32;62.89;101572.31;4976308;28;20050;-84
2022/04/14 04:27:00;;;;;;;5.93;3.67;;;;;;;10.40;62.63;101408.44;4990660;28;20050;-84
2022/04/14 04:29:26;;;;;;;5.38;4.20;;;;;;;11.38;62.37;101572.81;4990583;28;20127;-83
2022/04/14 04:31:53;;;;;;;5.00;4.22;;;;;;;11.28;62.63;101541.59;4973356;28;20173;-84
2022/04/14 04:34:19;;;;;;;5.10;4.45;;;;;;;10.71;62.50;101446.81;4990695;28;20054;-84
2022/04/14 04:36:46;;;;;;;9.40;4.40;;;;;;;11.54;62.45;101575.97;4973245;28;20139;-84
2022/04/14 04:39:12;;;;;;;11.68;4.50;;;;;;;11.58;62.22;101557.97;4973176;28;20060;-84
2022/04/14 04:41:39;;;;;;;5.05;4.38;;;;;;;11.47;62.16;101548.16;4973065;28;20050;-84
2022/04/14 04:44:06;;;;;;;6.30;4.40;;;;;;;11.53;62.66;101564.50;4990733;28;20050;-81
2022/04/14 04:46:33;;;;;;;5.30;4.43;;;;;;;9.84;61.75;101305.59;4990282;28;20305;-84
2022/04/14 04:49:00;;;;;;;7.40;4.72;;;;;;;11.47;61.91;101583.56;4972928;28;20050;-84
2022/04/14 04:51:27;;;;;;;4.75;3.92;;;;;;;11.32;62.40;101574.97;4973291;28;20560;-84
2022/04/14 04:53:53;;;;;;;5.32;4.57;;;;;;;11.34;62.65;101581.03;4972363;28;20125;-84
2022/04/14 04:56:20;;;;;;;6.40;4.18;;;;;;;11.03;62.42;101542.66;4970709;28;20082;-84
2022/04/14 04:58:47;;;;;;;5.78;4.15;;;;;;;11.14;62.10;101552.47;4986518;28;20133;-84
2022/04/14 05:01:13;;;;;;;5.93;4.95;;;;;;;11.44;61.42;101594.47;4987992;28;20053;-84
2022/04/14 05:03:40;;;;;;;4.57;4.18;;;;;;;11.22;61.34;101554.53;4986665;28;20112;-83
2022/04/14 05:06:06;;;;;;;7.85;5.13;;;;;;;11.32;60.86;101556.38;4986917;28;20038;-83
2022/04/14 05:08:33;;;;;;;6.10;4.60;;;;;;;10.78;61.14;101466.63;4986915;28;20046;-85
2022/04/14 05:11:06;;;;;;;4.63;4.20;;;;;;;11.05;60.66;101494.72;4988553;28;20058;-84
2022/04/14 05:13:33;;;;;;;6.28;3.80;;;;;;;11.54;60.30;101587.47;4970225;28;20090;-84
2022/04/14 05:16:01;;;;;;;8.20;4.22;;;;;;;11.64;59.51;101587.59;4986433;28;20116;-83
2022/04/14 05:18:28;;;;;;;5.07;4.57;;;;;;;11.45;60.07;101555.41;4970851;28;20057;-85
2022/04/14 05:20:55;;;;;;;7.10;4.60;;;;;;;11.77;59.78;101601.66;4970681;28;20078;-84
2022/04/14 05:23:21;;;;;;;5.90;5.35;;;;;;;11.57;59.09;101567.75;4983528;28;20264;-84
2022/04/14 05:25:48;;;;;;;5.72;4.53;;;;;;;11.81;59.52;101604.91;4961669;28;20046;-83
2022/04/14 05:28:15;;;;;;;6.90;4.82;;;;;;;10.94;58.73;101455.66;4997278;28;20590;-84
2022/04/14 05:30:41;;;;;;;4.75;4.35;;;;;;;11.07;58.90;101467.06;4977487;28;20058;-84
2022/04/14 05:33:10;;;;;;;5.97;4.45;;;;;;;12.02;58.96;101618.38;4973735;28;20061;-84
2022/04/14 05:35:38;;;;;;;7.10;4.70;;;;;;;11.94;59.74;101588.84;4968251;28;20260;-83
2022/04/14 05:38:05;;;;;;;5.10;4.30;;;;;;;11.96;58.54;101597.56;4968536;28;20050;-85
2022/04/14 05:40:54;;;;;;;9.50;4.90;;;;;;;12.12;59.35;101600.69;4986847;28;20074;-82
2022/04/14 05:43:25;;;;;;;13.25;5.50;;;;;;;12.09;58.85;101577.00;4983838;28;20248;-83
2022/04/14 05:45:51;;;;;;;8.27;5.53;;;;;;;12.39;58.67;101615.44;4967961;28;20124;-84
2022/04/14 05:48:18;;;;;;;6.80;5.30;;;;;;;12.32;58.24;101587.59;4985823;28;20072;-84
2022/04/14 05:50:46;;;;;;;11.93;5.40;;;;;;;12.45;57.94;101598.09;4985011;28;20085;-86
2022/04/14 05:53:13;;;;;;;9.45;5.85;;;;;;;12.57;57.82;101616.63;4968154;28;20073;-84
2022/04/14 05:55:40;;;;;;;6.25;5.05;;;;;;;12.64;58.16;101605.44;4968834;28;20321;-84
2022/04/14 05:58:07;;;;;;;8.02;5.00;;;;;;;12.63;58.00;101593.13;4970121;28;20137;-83
2022/04/14 06:00:35;;;;;;;6.38;5.20;;;;;;;12.74;57.72;101595.72;4986039;28;20504;-85
2022/04/14 06:03:02;;;;;;;4.97;4.25;;;;;;;12.68;57.53;101577.59;4987166;28;20070;-84
2022/04/14 06:05:31;;;;;;;5.90;4.82;;;;;;;12.73;57.05;101572.72;4986413;28;20218;-85
2022/04/14 06:07:58;;;;;;;6.80;5.10;;;;;;;12.58;57.25;101538.38;4985610;28;20053;-85
2022/04/14 06:10:26;;;;;;;6.53;4.65;;;;;;;13.00;56.56;101604.22;4987300;28;20050;-84
2022/04/14 06:12:56;;;;;;;7.72;4.95;;;;;;;13.15;56.29;101612.78;4969643;28;20056;-85
2022/04/14 06:15:26;;;;;;;6.18;4.57;;;;;;;13.03;55.97;101575.53;4987466;28;20058;-85
2022/04/14 06:17:53;;;;;;;6.85;4.53;;;;;;;13.34;55.50;101612.94;4969628;28;20061;-85
2022/04/14 06:20:20;;;;;;;9.88;4.72;;;;;;;13.40;55.37;101601.78;4986331;28;20050;-85
2022/04/14 06:22:49;;;;;;;6.47;4.68;;;;;;;13.52;55.34;101610.56;4971663;28;20239;-86
2022/04/14 06:25:22;;;;;;;6.07;4.85;;;;;;;12.22;54.41;101376.34;4989141;28;20311;-85
2022/04/14 06:27:50;;;;;;;5.50;4.88;;;;;;;13.76;53.86;101610.28;5005782;28;20462;-85
2022/04/14 06:30:19;;;;;;;5.68;5.18;;;;;;;13.23;53.36;101512.50;5006085;28;20388;-84
2022/04/14 06:33:03;;;;;;;7.25;5.65;;;;;;;13.24;54.45;101508.00;4989068;28;20058;-84
2022/04/14 06:35:30;;;;;;;7.85;4.72;;;;;;;13.85;51.71;101600.59;4988234;28;20578;-86
2022/04/14 06:37:58;;;;;;;6.47;5.18;;;;;;;13.72;51.61;101558.13;4989114;28;20058;-86
2022/04/14 06:40:25;;;;;;;5.75;5.22;;;;;;;13.79;52.31;101561.97;4988824;28;20571;-86
2022/04/14 06:42:59;;;;;;;8.90;5.25;;;;;;;14.21;51.90;101617.88;4989538;28;20406;-85
2022/04/14 06:45:27;;;;;;;5.82;3.90;;;;;;;14.22;50.52;101597.38;4987890;28;20049;-86
2022/04/14 06:47:54;;;;;;;8.43;4.55;;;;;;;14.36;50.59;101609.50;5004663;28;20400;-85
2022/04/14 06:50:21;;;;;;;6.90;3.50;;;;;;;14.51;50.86;101618.81;4968656;28;20515;-84
2022/04/14 06:52:48;;;;;;;4.75;3.33;;;;;;;14.53;49.91;101609.69;4969034;28;20431;-86
2022/04/14 06:55:16;;;;;;;10.40;4.00;;;;;;;14.42;49.64;101587.59;4968985;28;20077;-85
2022/04/14 06:57:43;;;;;;;4.97;3.53;;;;;;;14.70;49.42;101607.34;4986354;28;20441;-85
2022/04/14 07:00:10;;;;;;;5.03;3.40;;;;;;;14.76;49.03;101617.50;4986117;28;20459;-84
2022/04/14 07:02:51;;;;;;;6.25;3.45;;;;;;;14.77;48.66;101608.47;4968856;28;20069;-84
2022/04/14 07:05:18;;;;;;;3.40;3.10;;;;;;;14.62;48.21;101578.66;4969491;28;20558;-85
2022/04/14 07:07:46;;;;;;;6.13;3.70;;;;;;;14.57;48.48;101558.69;4969835;28;20475;-85
2022/04/14 07:10:12;;;;;;;7.30;4.03;;;;;;;14.86;48.21;101601.47;4970070;28;20065;-85
2022/04/14 07:12:41;;;;;;;4.32;3.92;;;;;;;15.00;47.78;101614.41;4987185;28;20054;-86
2022/04/14 07:15:09;;;;;;;5.28;3.85;;;;;;;15.07;47.62;101615.56;4970196;28;20066;-85
2022/04/14 07:17:36;;;;;;;4.38;3.85;;;;;;;14.72;47.78;101557.28;4968515;28;20312;-85
2022/04/14 07:20:04;;;;;;;5.38;4.10;;;;;;;14.97;47.92;101582.59;4968192;28;20054;-85
2022/04/14 07:22:41;;;;;;;8.00;4.32;;;;;;;15.05;47.55;101585.41;4968336;28;20064;-86
2022/04/14 07:25:07;;;;;;;4.20;3.80;;;;;;;15.10;47.24;101593.88;4969714;28;20507;-85
2022/04/14 07:27:34;;;;;;;4.93;3.67;;;;;;;15.35;46.80;101610.31;4987153;28;20050;-85
2022/04/14 07:30:01;;;;;;;6.75;4.90;;;;;;;14.94;46.51;101534.75;4987494;28;20145;-85
2022/04/14 07:32:35;;;;;;;5.10;4.63;;;;;;;15.47;46.20;101614.50;4986172;28;20046;-85
2022/04/14 07:35:03;;;;;;;5.28;4.75;;;;;;;14.90;46.97;101528.00;4984670;28;20141;-85
2022/04/14 07:37:31;;;;;;;5.20;4.35;;;;;;;15.49;46.85;101612.53;4985894;28;20050;-85
2022/04/14 07:39:58;;;;;;;11.07;4.90;;;;;;;15.22;47.14;101574.97;4966492;28;20054;-85
2022/04/14 07:42:39;;;;;;;8.00;4.32;;;;;;;15.36;47.04;101593.25;4965666;28;20336;-85
2022/04/14 07:45:07;;;;;;;6.55;4.22;;;;;;;15.50;46.76;101608.84;4965672;28;20540;-86
2022/04/14 07:47:39;;;;;;;;;;;;;;;15.54;46.79;101623.66;4966700;28;20324;-85
2022/04/14 07:50:06;;;;;;;9.23;4.47;;;;;;;15.39;47.04;101598.34;4966360;28;20357;-87
2022/04/14 07:52:46;;;;;;;11.07;4.35;;;;;;;15.58;47.29;101634.91;4967699;28;20050;-86
2022/04/14 07:55:20;;;;;;;7.72;4.53;;;;;;;15.57;47.40;101623.34;4986770;28;20452;-87
2022/04/14 07:57:48;;;;;;;5.60;4.32;;;;;;;15.65;47.61;101635.16;4969524;28;20082;-87
2022/04/14 08:00:16;;;;;;;6.43;5.10;;;;;;;15.17;47.27;101536.13;4969930;28;20050;-87
2022/04/14 08:02:53;;;;;;;8.20;5.15;;;;;;;15.80;46.82;101625.72;4969336;28;20058;-87
2022/04/14 08:05:22;;;;;;;5.70;5.05;;;;;;;15.37;46.70;101553.00;4969708;28;20064;-86
2022/04/14 08:07:49;;;;;;;5.07;4.68;;;;;;;15.86;46.68;101630.50;4969534;28;20054;-86
2022/04/14 08:10:16;;;;;;;6.22;4.85;;;;;;;15.91;46.61;101628.22;4969965;28;20054;-86
2022/04/14 08:12:43;;;;;;;6.00;4.90;;;;;;;15.99;46.55;101630.16;4970120;28;20504;-86
2022/04/14 08:15:13;;;;;;;6.78;5.78;;;;;;;15.96;46.65;101617.06;4969850;28;20085;-86
2022/04/14 08:17:42;;;;;;;7.75;5.28;;;;;;;15.03;46.81;101477.75;4970161;28;20062;-87
2022/04/14 08:20:11;;;;;;;5.07;4.57;;;;;;;15.62;46.71;101556.00;4969837;28;20086;-87
2022/04/14 08:22:50;;;;;;;7.50;4.75;;;;;;;16.16;46.16;101637.41;4969465;28;20065;-87
2022/04/14 08:25:21;;;;;;;9.43;5.03;;;;;;;15.31;46.10;101486.66;4969635;28;20054;-87
2022/04/14 08:27:49;;;;;;;;;;;;;;;16.26;45.84;101629.34;4970103;28;20153;-87
2022/04/14 08:30:17;;;;;;;9.05;4.82;;;;;;;15.44;46.22;101462.28;4986866;28;19940;-87
2022/04/14 08:32:46;;;;;;;7.07;4.70;;;;;;;15.59;45.69;101508.97;4969930;28;20058;-84
2022/04/14 08:35:13;;;;;;;5.25;4.72;;;;;;;16.22;45.43;101596.66;4986851;28;20485;-85
2022/04/14 08:37:41;;;;;;;6.70;4.32;;;;;;;15.69;44.52;101511.59;4987000;28;20078;-86
2022/04/14 08:40:11;;;;;;;6.75;4.63;;;;;;;16.41;44.15;101622.50;4986881;28;20085;-87
2022/04/14 08:42:41;;;;;;;6.90;4.88;;;;;;;16.02;44.07;101560.25;4969202;28;20133;-85
2022/04/14 08:45:11;;;;;;;10.45;4.35;;;;;;;16.17;44.64;101571.31;4969583;28;20108;-86
2022/04/14 08:47:42;;;;;;;5.85;4.88;;;;;;;16.65;45.23;101631.78;4969647;28;20049;-86
2022/04/14 08:50:13;;;;;;;4.47;4.10;;;;;;;16.64;45.43;101620.22;4986987;28;20575;-86
2022/04/14 08:52:42;;;;;;;5.32;4.25;;;;;;;16.99;43.69;101625.78;4970201;28;20050;-85
2022/04/14 08:55:11;;;;;;;8.18;4.20;;;;;;;16.91;43.72;101596.22;4969337;28;20074;-85
2022/04/14 08:57:41;;;;;;;4.03;3.55;;;;;;;17.05;42.91;101628.72;4969278;28;20092;-86
2022/04/14 09:00:10;;;;;;;4.32;3.92;;;;;;;17.03;43.06;101627.19;4969749;28;20062;-86
2022/04/14 09:02:38;;;;;;;8.00;3.85;;;;;;;16.12;43.15;101466.47;4969870;28;20521;-84
2022/04/14 09:05:05;;;;;;;3.47;3.10;;;;;;;16.45;41.36;101507.78;4987445;28;20286;-85
2022/04/14 09:07:33;;;;;;;3.40;2.33;;;;;;;16.17;40.03;101466.84;4987543;28;20265;-84
2022/04/14 09:10:00;;;;;;;3.70;2.65;;;;;;;16.76;41.56;101545.78;4972901;28;20070;-85
2022/04/14 09:12:29;;;;;;;5.72;3.40;;;;;;;17.28;41.66;101628.22;4974136;28;20348;-85
2022/04/14 09:14:55;;;;;;;4.55;3.15;;;;;;;16.62;41.93;101506.09;4991440;28;20406;-86
2022/04/14 09:17:22;;;;;;;4.32;2.95;;;;;;;16.84;41.26;101520.91;4973414;28;20141;-85
2022/04/14 09:19:49;;;;;;;3.08;2.75;;;;;;;17.17;40.08;101558.72;4972621;28;20141;-85
2022/04/14 09:22:15;;;;;;;4.43;2.67;;;;;;;17.61;40.02;101599.78;4972452;28;20060;-85
2022/04/14 09:24:49;;;;;;;4.00;3.22;;;;;;;17.96;38.60;101630.22;4971081;28;20133;-85
2022/04/14 09:27:26;;;;;;;4.18;3.13;;;;;;;17.67;38.17;101568.75;4993036;28;20109;-85
2022/04/14 09:29:54;;;;;;;4.10;2.78;;;;;;;17.87;37.43;101585.53;4985818;28;20643;-84
2022/04/14 09:32:30;;;;;;;2.85;2.10;;;;;;;18.31;36.27;101634.59;4982197;28;20117;-85
2022/04/14 09:34:59;;;;;;;9.32;3.15;;;;;;;18.41;37.55;101607.59;4977929;28;20153;-85
2022/04/14 09:37:26;;;;;;;5.90;2.50;;;;;;;18.47;36.37;101590.81;4992037;28;20128;-84
2022/04/14 09:40:01;;;;;;;5.65;3.25;;;;;;;18.02;35.88;101468.41;4990705;28;20056;-85
2022/04/14 09:42:30;;;;;;;4.22;2.33;;;;;;;18.77;35.26;101585.84;4970347;28;20057;-86
2022/04/14 09:45:36;;;;;;;4.10;2.45;;;;;;;19.07;33.56;101603.19;4970676;28;20275;-86
2022/04/14 09:48:02;;;;;;;2.90;2.60;;;;;;;18.96;35.03;101558.63;4891726;29;20617;-86
2022/04/14 09:50:39;;;;;;;4.07;2.78;;;;;;;19.29;34.08;101607.03;4907574;29;20147;-86
2022/04/14 09:53:09;;;;;;;3.17;2.15;;;;;;;19.56;34.79;101597.75;4934358;28;20050;-86
2022/04/14 09:55:40;;;;;;;4.10;2.60;;;;;;;19.69;33.17;101605.34;4987160;28;20153;-87
2022/04/14 09:58:17;;;;;;;;;;;;;;;19.94;33.62;101608.81;4970471;28;20137;-85
2022/04/14 10:00:46;;;;;;;5.05;2.42;;;;;;;19.83;32.65;101575.00;4985505;28;19930;-85
2022/04/14 10:03:27;;;;;;;5.43;2.88;;;;;;;19.98;32.34;101609.31;4967321;28;20583;-86
2022/04/14 10:05:57;;;;;;;2.75;2.28;;;;;;;20.00;32.91;101599.16;4968746;28;20050;-86
2022/04/14 10:08:25;;;;;;;2.85;2.58;;;;;;;19.85;32.52;101551.41;4969891;28;20050;-86
2022/04/14 10:11:06;;;;;;;3.33;2.38;;;;;;;19.26;31.36;101401.97;4970358;28;20042;-86
2022/04/14 10:13:38;;;;;;;3.75;1.75;;;;;;;20.10;31.87;101513.56;4987178;28;20369;-86
2022/04/14 10:16:07;;;;;;;2.85;2.03;;;;;;;20.76;32.31;101588.72;4968558;28;20042;-86
2022/04/14 10:18:34;;;;;;;4.25;2.10;;;;;;;20.62;31.47;101501.28;4986147;28;20058;-85
2022/04/14 10:21:01;;;;;;;3.50;2.22;;;;;;;21.17;30.68;101580.28;4968981;28;20528;-85
2022/04/14 10:23:28;;;;;;;3.03;2.50;;;;;;;21.40;30.75;101607.25;4969988;28;20054;-85
2022/04/14 10:25:55;;;;;;;5.47;2.20;;;;;;;21.38;29.05;101580.41;4969622;28;20073;-85
2022/04/14 10:28:26;;;;;;;5.03;2.22;;;;;;;20.96;29.73;101521.56;4986717;28;20082;-86
2022/04/14 10:30:55;;;;;;;1.70;1.60;;;;;;;21.60;28.88;101588.66;4987338;28;20131;-86
2022/04/14 10:33:23;;;;;;;3.08;1.88;;;;;;;20.98;29.00;101496.06;4969743;28;20050;-85
2022/04/14 10:35:52;;;;;;;3.50;2.28;;;;;;;21.57;28.98;101583.63;4986525;28;20144;-86
2022/04/14 10:38:21;;;;;;;2.05;1.42;;;;;;;21.71;28.66;101589.03;4969085;28;20057;-86
2022/04/14 10:41:01;;;;;;;2.28;2.08;;;;;;;21.74;29.37;101563.50;4968662;28;20137;-86
2022/04/14 10:43:29;;;;;;;3.03;2.00;;;;;;;21.81;28.88;101545.50;4969332;28;20052;-85
2022/04/14 10:45:59;;;;;;;3.08;2.10;;;;;;;22.32;28.51;101580.72;4969620;28;20137;-86
2022/04/14 10:48:33;;;;;;;3.28;1.83;;;;;;;22.02;28.46;101525.00;4968988;28;20420;-86
2022/04/14 10:51:27;;;;;;;3.85;2.10;;;;;;;22.46;29.32;101580.88;4968999;28;20378;-85
2022/04/14 10:54:00;;;;;;;6.65;2.60;;;;;;;22.46;29.41;101586.28;4984946;28;20050;-86
2022/04/14 10:56:49;;;;;;;6.13;2.40;;;;;;;22.59;29.09;101583.72;4966160;28;20142;-86
2022/04/14 10:59:41;;;;;;;3.88;2.50;;;;;;;22.81;27.71;101587.25;4984509;28;20053;-86
2022/04/14 11:02:08;;;;;;;4.80;2.05;;;;;;;22.67;28.18;101544.84;4968042;28;20408;-86
2022/04/14 11:04:41;;;;;;;3.08;2.10;;;;;;;22.95;27.25;101590.94;4968329;28;20082;-86
2022/04/14 11:07:11;;;;;;;3.25;2.42;;;;;;;22.75;27.72;101569.94;4984318;28;20050;-86
2022/04/14 11:09:38;;;;;;;2.95;1.95;;;;;;;22.94;27.71;101583.88;4984899;28;20152;-86
2022/04/14 11:12:17;;;;;;;5.53;2.10;;;;;;;22.69;27.15;101561.75;4986167;28;20445;-86
2022/04/14 11:14:45;;;;;;;5.43;2.50;;;;;;;22.94;27.30;101583.88;4970286;28;20057;-86
2022/04/14 11:20:48;;;;;;;7.60;2.50;;;;;;;23.47;26.75;101578.88;4985525;28;20046;-86
2022/04/14 11:23:21;;;;;;;4.68;2.42;;;;;;;23.35;27.22;101510.00;4981600;28;20093;-86
2022/04/14 11:25:49;;;;;;;3.83;2.38;;;;;;;23.55;26.79;101505.56;4980703;28;20055;-86
2022/04/14 11:28:33;;;;;;;3.58;2.72;;;;;;;23.56;26.50;101493.69;4969040;28;20045;-85
2022/04/14 11:31:18;;;;;;;2.45;2.08;;;;;;;24.18;27.50;101565.13;4983765;28;20480;-85
2022/04/14 11:33:47;;;;;;;3.45;2.15;;;;;;;24.01;27.08;101502.25;4985097;28;20232;-85
2022/04/14 11:36:16;;;;;;;5.07;2.65;;;;;;;23.89;26.55;101512.84;4969205;28;20050;-86
2022/04/14 11:39:04;;;;;;;3.88;2.30;;;;;;;24.24;26.58;101571.59;4969986;28;20464;-85